MKJP/KIN METAR and TAF weather

Enter ICAO airport designator
Station Type Date Time Source
MKJP METAR 2021/09/24 06:00 UTC NOAA

MKJP 240600Z 14003KT 9999 FEW022 BKN040 28/26 Q1012


Station Type Date Time Source
MKJP Decoded METAR 2021/09/24 06:00 UTC NOAA

Kingston / Norman Manley, Jamaica (MKJP) 17-56N 076-47W 14M
Sep 24, 2021 - 02:00 AM EDT / 2021.09.24 0600 UTC
Wind: from the SE (140 degrees) at 3 MPH (3 KT):0
Visibility: greater than 7 mile(s):0
Sky conditions: mostly cloudy
Temperature: 82 F (28 C)
Dew Point: 78 F (26 C)
Relative Humidity: 88%
Pressure (altimeter): 29.88 in. Hg (1012 hPa)
ob: MKJP 240600Z 14003KT 9999 FEW022 BKN040 28/26 Q1012
cycle: 6

Station Type Date Time Source
MKJP TAF 2021/09/23 18:27 UTC NOAA

TAF MKJP 231715Z 2318/2418 16010KT 9999 FEW020
TEMPO 2318/2324 TS SCT020 BKN022CB
BECMG 2403/2405 35004KT
BECMG 2416/2418 15010KT

Example: see airport list